sensor_id;sensor_type;location;lat;lon;timestamp;pressure;altitude;pressure_sealevel;temperature;humidity
55540;BME280;41384;51.418;7.286;2023-05-28T00:00:04;100290.25;;;13.70;78.03
55540;BME280;41384;51.418;7.286;2023-05-28T00:02:31;100293.59;;;13.59;79.44
55540;BME280;41384;51.418;7.286;2023-05-28T00:04:57;100295.56;;;13.70;78.74
55540;BME280;41384;51.418;7.286;2023-05-28T00:07:22;100289.41;;;13.69;77.77
55540;BME280;41384;51.418;7.286;2023-05-28T00:09:48;100288.66;;;13.62;78.57
55540;BME280;41384;51.418;7.286;2023-05-28T00:12:14;100290.41;;;13.75;77.49
55540;BME280;41384;51.418;7.286;2023-05-28T00:14:39;100288.81;;;13.42;79.20
55540;BME280;41384;51.418;7.286;2023-05-28T00:17:04;100289.81;;;13.34;80.08
55540;BME280;41384;51.418;7.286;2023-05-28T00:19:30;100290.31;;;13.18;80.35
55540;BME280;41384;51.418;7.286;2023-05-28T00:21:55;100280.50;;;13.25;80.29
55540;BME280;41384;51.418;7.286;2023-05-28T00:24:20;100282.56;;;13.16;81.12
55540;BME280;41384;51.418;7.286;2023-05-28T00:26:45;100280.16;;;13.08;81.21
55540;BME280;41384;51.418;7.286;2023-05-28T00:29:11;100280.78;;;13.10;81.63
55540;BME280;41384;51.418;7.286;2023-05-28T00:31:38;100284.25;;;13.10;81.42
55540;BME280;41384;51.418;7.286;2023-05-28T00:34:03;100279.75;;;13.11;81.44
55540;BME280;41384;51.418;7.286;2023-05-28T00:36:28;100285.28;;;13.03;81.64
55540;BME280;41384;51.418;7.286;2023-05-28T00:38:54;100279.44;;;12.94;82.67
55540;BME280;41384;51.418;7.286;2023-05-28T00:41:22;100275.75;;;12.95;82.43
55540;BME280;41384;51.418;7.286;2023-05-28T00:43:48;100279.22;;;12.95;82.53
55540;BME280;41384;51.418;7.286;2023-05-28T00:46:17;100278.97;;;13.04;81.89
55540;BME280;41384;51.418;7.286;2023-05-28T00:48:43;100275.94;;;13.00;82.03
55540;BME280;41384;51.418;7.286;2023-05-28T00:51:09;100282.47;;;12.97;82.42
55540;BME280;41384;51.418;7.286;2023-05-28T00:53:35;100272.25;;;13.01;81.14
55540;BME280;41384;51.418;7.286;2023-05-28T00:56:01;100273.88;;;13.02;82.60
55540;BME280;41384;51.418;7.286;2023-05-28T00:58:27;100277.56;;;12.94;82.93
55540;BME280;41384;51.418;7.286;2023-05-28T01:00:53;100273.56;;;12.78;83.86
55540;BME280;41384;51.418;7.286;2023-05-28T01:03:19;100271.69;;;12.92;82.62
55540;BME280;41384;51.418;7.286;2023-05-28T01:05:45;100266.78;;;12.96;82.15
55540;BME280;41384;51.418;7.286;2023-05-28T01:08:10;100262.72;;;13.32;80.56
55540;BME280;41384;51.418;7.286;2023-05-28T01:10:36;100260.16;;;13.19;80.69
55540;BME280;41384;51.418;7.286;2023-05-28T01:13:04;100264.88;;;13.10;81.26
55540;BME280;41384;51.418;7.286;2023-05-28T01:15:29;100257.56;;;13.05;81.63
55540;BME280;41384;51.418;7.286;2023-05-28T01:17:57;100260.22;;;13.05;81.64
55540;BME280;41384;51.418;7.286;2023-05-28T01:20:24;100265.88;;;13.16;80.74
55540;BME280;41384;51.418;7.286;2023-05-28T01:22:55;100262.75;;;12.87;82.33
55540;BME280;41384;51.418;7.286;2023-05-28T01:25:21;100267.88;;;12.81;82.70
55540;BME280;41384;51.418;7.286;2023-05-28T01:27:47;100263.56;;;12.80;82.79
55540;BME280;41384;51.418;7.286;2023-05-28T01:30:12;100259.84;;;12.95;81.60
55540;BME280;41384;51.418;7.286;2023-05-28T01:32:38;100265.41;;;12.87;82.90
55540;BME280;41384;51.418;7.286;2023-05-28T01:35:04;100265.00;;;12.83;83.17
55540;BME280;41384;51.418;7.286;2023-05-28T01:37:31;100260.91;;;12.80;83.70
55540;BME280;41384;51.418;7.286;2023-05-28T01:39:59;100264.59;;;12.79;84.01
55540;BME280;41384;51.418;7.286;2023-05-28T01:42:28;100256.03;;;12.77;84.08
55540;BME280;41384;51.418;7.286;2023-05-28T01:44:55;100260.78;;;12.62;84.37
55540;BME280;41384;51.418;7.286;2023-05-28T01:47:21;100260.38;;;12.65;83.94
55540;BME280;41384;51.418;7.286;2023-05-28T01:49:47;100259.81;;;12.49;84.47
55540;BME280;41384;51.418;7.286;2023-05-28T01:52:13;100259.41;;;12.39;85.92
55540;BME280;41384;51.418;7.286;2023-05-28T01:54:38;100246.00;;;12.40;86.75
55540;BME280;41384;51.418;7.286;2023-05-28T01:57:04;100244.56;;;12.38;86.20
55540;BME280;41384;51.418;7.286;2023-05-28T01:59:29;100242.09;;;12.43;84.90
55540;BME280;41384;51.418;7.286;2023-05-28T02:01:55;100244.97;;;12.35;85.08
55540;BME280;41384;51.418;7.286;2023-05-28T02:04:20;100243.38;;;12.20;86.57
55540;BME280;41384;51.418;7.286;2023-05-28T02:06:46;100233.41;;;12.16;87.58
55540;BME280;41384;51.418;7.286;2023-05-28T02:09:11;100238.47;;;12.31;86.96
55540;BME280;41384;51.418;7.286;2023-05-28T02:11:37;100231.56;;;12.30;86.99
55540;BME280;41384;51.418;7.286;2023-05-28T02:14:02;100234.81;;;12.25;85.88
55540;BME280;41384;51.418;7.286;2023-05-28T02:16:30;100235.41;;;12.27;87.14
55540;BME280;41384;51.418;7.286;2023-05-28T02:18:55;100227.69;;;12.19;87.54
55540;BME280;41384;51.418;7.286;2023-05-28T02:21:37;100231.34;;;12.18;87.90
55540;BME280;41384;51.418;7.286;2023-05-28T02:24:02;100228.72;;;12.18;88.10
55540;BME280;41384;51.418;7.286;2023-05-28T02:26:28;100228.69;;;12.31;87.00
55540;BME280;41384;51.418;7.286;2023-05-28T02:28:54;100227.06;;;12.30;86.68
55540;BME280;41384;51.418;7.286;2023-05-28T02:31:19;100239.25;;;12.38;86.53
55540;BME280;41384;51.418;7.286;2023-05-28T02:33:44;100243.91;;;12.49;85.58
55540;BME280;41384;51.418;7.286;2023-05-28T02:36:10;100236.34;;;12.60;84.66
55540;BME280;41384;51.418;7.286;2023-05-28T02:38:38;100242.06;;;12.57;84.65
55540;BME280;41384;51.418;7.286;2023-05-28T02:41:04;100242.44;;;12.67;84.14
55540;BME280;41384;51.418;7.286;2023-05-28T02:43:29;100244.66;;;12.70;84.46
55540;BME280;41384;51.418;7.286;2023-05-28T02:45:55;100244.66;;;12.77;83.53
55540;BME280;41384;51.418;7.286;2023-05-28T02:48:20;100245.31;;;12.65;83.37
55540;BME280;41384;51.418;7.286;2023-05-28T02:50:45;100248.41;;;12.49;84.13
55540;BME280;41384;51.418;7.286;2023-05-28T02:53:11;100234.00;;;12.24;86.04
55540;BME280;41384;51.418;7.286;2023-05-28T02:55:36;100233.59;;;12.21;86.04
55540;BME280;41384;51.418;7.286;2023-05-28T02:58:01;100239.25;;;12.38;84.85
55540;BME280;41384;51.418;7.286;2023-05-28T03:00:28;100238.84;;;12.34;85.68
55540;BME280;41384;51.418;7.286;2023-05-28T03:02:53;100233.19;;;12.31;84.82
55540;BME280;41384;51.418;7.286;2023-05-28T03:05:19;100234.34;;;12.55;84.21
55540;BME280;41384;51.418;7.286;2023-05-28T03:07:44;100234.81;;;12.25;85.37
55540;BME280;41384;51.418;7.286;2023-05-28T03:10:09;100232.75;;;12.27;85.65
55540;BME280;41384;51.418;7.286;2023-05-28T03:12:34;100242.19;;;12.03;86.85
55540;BME280;41384;51.418;7.286;2023-05-28T03:15:01;100233.44;;;12.09;86.49
55540;BME280;41384;51.418;7.286;2023-05-28T03:17:26;100233.19;;;11.90;88.40
55540;BME280;41384;51.418;7.286;2023-05-28T03:19:52;100236.88;;;11.82;88.76
55540;BME280;41384;51.418;7.286;2023-05-28T03:22:17;100235.63;;;11.85;89.65
55540;BME280;41384;51.418;7.286;2023-05-28T03:24:42;100242.56;;;11.86;88.56
55540;BME280;41384;51.418;7.286;2023-05-28T03:27:07;100239.72;;;11.61;89.34
55540;BME280;41384;51.418;7.286;2023-05-28T03:29:33;100242.56;;;11.79;88.25
55540;BME280;41384;51.418;7.286;2023-05-28T03:31:58;100235.84;;;11.97;88.09
55540;BME280;41384;51.418;7.286;2023-05-28T03:34:23;100231.56;;;11.82;89.54
55540;BME280;41384;51.418;7.286;2023-05-28T03:36:49;100231.38;;;11.71;89.28
55540;BME280;41384;51.418;7.286;2023-05-28T03:39:15;100233.41;;;12.02;87.73
55540;BME280;41384;51.418;7.286;2023-05-28T03:41:40;100235.22;;;12.22;86.77
55540;BME280;41384;51.418;7.286;2023-05-28T03:44:06;100237.03;;;12.42;85.47
55540;BME280;41384;51.418;7.286;2023-05-28T03:46:32;100230.34;;;12.25;86.74
55540;BME280;41384;51.418;7.286;2023-05-28T03:48:57;100237.22;;;12.33;86.52
55540;BME280;41384;51.418;7.286;2023-05-28T03:51:22;100232.41;;;12.10;87.04
55540;BME280;41384;51.418;7.286;2023-05-28T03:53:49;100239.94;;;12.13;86.79
55540;BME280;41384;51.418;7.286;2023-05-28T03:56:14;100233.66;;;12.01;86.88
55540;BME280;41384;51.418;7.286;2023-05-28T03:58:39;100248.25;;;11.96;87.06
55540;BME280;41384;51.418;7.286;2023-05-28T04:01:05;100249.47;;;11.87;88.30
55540;BME280;41384;51.418;7.286;2023-05-28T04:03:30;100243.41;;;12.00;87.93
55540;BME280;41384;51.418;7.286;2023-05-28T04:05:55;100249.47;;;11.94;88.31
55540;BME280;41384;51.418;7.286;2023-05-28T04:08:21;100240.13;;;12.11;88.06
55540;BME280;41384;51.418;7.286;2023-05-28T04:10:46;100240.47;;;12.42;85.81
55540;BME280;41384;51.418;7.286;2023-05-28T04:13:12;100235.81;;;12.37;85.49
55540;BME280;41384;51.418;7.286;2023-05-28T04:15:37;100242.09;;;12.43;85.59
55540;BME280;41384;51.418;7.286;2023-05-28T04:18:02;100227.44;;;12.47;85.53
55540;BME280;41384;51.418;7.286;2023-05-28T04:20:27;100230.34;;;12.25;86.58
55540;BME280;41384;51.418;7.286;2023-05-28T04:22:53;100237.66;;;12.17;88.28
55540;BME280;41384;51.418;7.286;2023-05-28T04:25:18;100235.25;;;12.08;88.96
55540;BME280;41384;51.418;7.286;2023-05-28T04:27:44;100249.66;;;11.92;90.10
55540;BME280;41384;51.418;7.286;2023-05-28T04:30:10;100251.72;;;11.83;91.20
55540;BME280;41384;51.418;7.286;2023-05-28T04:32:36;100246.84;;;12.14;90.70
55540;BME280;41384;51.418;7.286;2023-05-28T04:35:05;100248.59;;;12.47;88.01
55540;BME280;41384;51.418;7.286;2023-05-28T04:37:30;100246.16;;;12.52;87.53
55540;BME280;41384;51.418;7.286;2023-05-28T04:39:58;100248.97;;;12.64;86.83
55540;BME280;41384;51.418;7.286;2023-05-28T04:42:24;100242.84;;;12.70;85.38
55540;BME280;41384;51.418;7.286;2023-05-28T04:44:49;100254.22;;;12.71;85.47
55540;BME280;41384;51.418;7.286;2023-05-28T04:47:15;100248.16;;;12.64;87.05
55540;BME280;41384;51.418;7.286;2023-05-28T04:49:40;100248.19;;;12.57;87.50
55540;BME280;41384;51.418;7.286;2023-05-28T04:52:06;100249.72;;;12.78;86.22
55540;BME280;41384;51.418;7.286;2023-05-28T04:54:31;100256.63;;;12.79;86.94
55540;BME280;41384;51.418;7.286;2023-05-28T04:56:56;100259.50;;;12.78;86.02
55540;BME280;41384;51.418;7.286;2023-05-28T04:59:22;100266.00;;;12.89;85.59
55540;BME280;41384;51.418;7.286;2023-05-28T05:01:47;100268.72;;;12.68;86.18
55540;BME280;41384;51.418;7.286;2023-05-28T05:04:12;100264.75;;;12.91;85.09
55540;BME280;41384;51.418;7.286;2023-05-28T05:06:38;100267.59;;;12.96;85.65
55540;BME280;41384;51.418;7.286;2023-05-28T05:09:03;100269.00;;;12.99;86.31
55540;BME280;41384;51.418;7.286;2023-05-28T05:11:30;100274.50;;;13.04;85.79
55540;BME280;41384;51.418;7.286;2023-05-28T05:13:56;100270.22;;;13.03;85.47
55540;BME280;41384;51.418;7.286;2023-05-28T05:16:21;100281.41;;;13.05;85.73
55540;BME280;41384;51.418;7.286;2023-05-28T05:18:46;100280.69;;;12.84;85.07
55540;BME280;41384;51.418;7.286;2023-05-28T05:21:12;100280.34;;;12.61;86.41
55540;BME280;41384;51.418;7.286;2023-05-28T05:23:39;100268.66;;;12.89;85.96
55540;BME280;41384;51.418;7.286;2023-05-28T05:26:05;100266.75;;;13.03;84.40
55540;BME280;41384;51.418;7.286;2023-05-28T05:28:30;100268.94;;;13.12;83.40
55540;BME280;41384;51.418;7.286;2023-05-28T05:30:56;100272.75;;;13.23;82.95
55540;BME280;41384;51.418;7.286;2023-05-28T05:33:21;100274.34;;;13.31;82.95
55540;BME280;41384;51.418;7.286;2023-05-28T05:35:46;100274.50;;;13.04;83.09
55540;BME280;41384;51.418;7.286;2023-05-28T05:38:11;100279.78;;;13.04;83.55
55540;BME280;41384;51.418;7.286;2023-05-28T05:40:37;100284.03;;;13.12;83.03
55540;BME280;41384;51.418;7.286;2023-05-28T05:43:02;100287.41;;;13.33;83.49
55540;BME280;41384;51.418;7.286;2023-05-28T05:45:28;100290.59;;;13.41;82.96
55540;BME280;41384;51.418;7.286;2023-05-28T05:47:53;100281.78;;;13.54;82.59
55540;BME280;41384;51.418;7.286;2023-05-28T05:50:18;100274.16;;;13.65;81.96
55540;BME280;41384;51.418;7.286;2023-05-28T05:52:43;100281.97;;;13.60;81.04
55540;BME280;41384;51.418;7.286;2023-05-28T05:55:09;100276.13;;;13.76;81.00
55540;BME280;41384;51.418;7.286;2023-05-28T05:57:34;100288.31;;;13.84;81.18
55540;BME280;41384;51.418;7.286;2023-05-28T06:00:02;100284.22;;;13.88;80.04
55540;BME280;41384;51.418;7.286;2023-05-28T06:02:28;100282.16;;;13.58;82.56
55540;BME280;41384;51.418;7.286;2023-05-28T06:04:53;100288.44;;;13.70;80.88
55540;BME280;41384;51.418;7.286;2023-05-28T06:07:20;100289.13;;;13.84;80.66
55540;BME280;41384;51.418;7.286;2023-05-28T06:09:45;100287.22;;;13.92;79.83
55540;BME280;41384;51.418;7.286;2023-05-28T06:12:10;100279.50;;;13.90;79.50
55540;BME280;41384;51.418;7.286;2023-05-28T06:14:36;100282.22;;;14.02;78.73
55540;BME280;41384;51.418;7.286;2023-05-28T06:17:01;100291.56;;;13.86;80.37
55540;BME280;41384;51.418;7.286;2023-05-28T06:19:28;100286.03;;;13.88;80.24
55540;BME280;41384;51.418;7.286;2023-05-28T06:21:54;100283.94;;;13.96;80.01
55540;BME280;41384;51.418;7.286;2023-05-28T06:24:19;100289.88;;;13.92;80.26
55540;BME280;41384;51.418;7.286;2023-05-28T06:26:44;100288.63;;;13.69;78.97
55540;BME280;41384;51.418;7.286;2023-05-28T06:29:10;100287.06;;;13.86;78.75
55540;BME280;41384;51.418;7.286;2023-05-28T06:31:35;100288.34;;;13.77;78.63
55540;BME280;41384;51.418;7.286;2023-05-28T06:34:00;100274.50;;;14.00;78.62
55540;BME280;41384;51.418;7.286;2023-05-28T06:36:27;100282.34;;;13.89;79.36
55540;BME280;41384;51.418;7.286;2023-05-28T06:38:53;100279.53;;;14.09;78.96
55540;BME280;41384;51.418;7.286;2023-05-28T06:41:18;100279.53;;;14.09;78.87
55540;BME280;41384;51.418;7.286;2023-05-28T06:43:44;100271.44;;;14.22;78.63
55540;BME280;41384;51.418;7.286;2023-05-28T06:46:09;100271.75;;;14.33;78.64
55540;BME280;41384;51.418;7.286;2023-05-28T06:48:34;100282.38;;;14.33;78.28
55540;BME280;41384;51.418;7.286;2023-05-28T06:51:00;100273.97;;;14.36;77.36
55540;BME280;41384;51.418;7.286;2023-05-28T06:53:25;100291.22;;;14.26;78.78
55540;BME280;41384;51.418;7.286;2023-05-28T06:55:50;100290.09;;;14.15;80.14
55540;BME280;41384;51.418;7.286;2023-05-28T06:58:16;100292.84;;;14.27;80.17
55540;BME280;41384;51.418;7.286;2023-05-28T07:00:41;100290.19;;;14.46;79.47
55540;BME280;41384;51.418;7.286;2023-05-28T07:03:06;100289.91;;;14.54;79.32
55540;BME280;41384;51.418;7.286;2023-05-28T07:05:33;100296.94;;;14.67;80.96
55540;BME280;41384;51.418;7.286;2023-05-28T07:08:00;100292.31;;;14.63;78.77
55540;BME280;41384;51.418;7.286;2023-05-28T07:10:25;100299.00;;;14.65;77.42
55540;BME280;41384;51.418;7.286;2023-05-28T07:12:51;100292.66;;;14.66;78.42
55540;BME280;41384;51.418;7.286;2023-05-28T07:15:16;100297.50;;;14.76;79.07
55540;BME280;41384;51.418;7.286;2023-05-28T07:17:42;100297.91;;;14.92;79.09
55540;BME280;41384;51.418;7.286;2023-05-28T07:20:07;100291.47;;;14.99;78.02
55540;BME280;41384;51.418;7.286;2023-05-28T07:22:33;100299.97;;;15.08;77.81
55540;BME280;41384;51.418;7.286;2023-05-28T07:24:58;100303.44;;;15.09;78.15
55540;BME280;41384;51.418;7.286;2023-05-28T07:27:24;100311.88;;;14.87;78.21
55540;BME280;41384;51.418;7.286;2023-05-28T07:29:49;100318.44;;;15.03;78.29
55540;BME280;41384;51.418;7.286;2023-05-28T07:32:14;100312.31;;;15.02;80.04
55540;BME280;41384;51.418;7.286;2023-05-28T07:34:40;100313.97;;;15.15;80.71
55540;BME280;41384;51.418;7.286;2023-05-28T07:37:06;100316.91;;;15.26;81.12
55540;BME280;41384;51.418;7.286;2023-05-28T07:39:32;100314.97;;;15.33;79.58
55540;BME280;41384;51.418;7.286;2023-05-28T07:41:57;100319.81;;;15.24;79.94
55540;BME280;41384;51.418;7.286;2023-05-28T07:44:22;100320.53;;;15.31;79.81
55540;BME280;41384;51.418;7.286;2023-05-28T07:46:47;100313.03;;;15.40;78.25
55540;BME280;41384;51.418;7.286;2023-05-28T07:49:13;100318.13;;;15.42;77.84
55540;BME280;41384;51.418;7.286;2023-05-28T07:51:38;100317.69;;;15.45;76.68
55540;BME280;41384;51.418;7.286;2023-05-28T07:54:03;100310.66;;;15.51;75.91
55540;BME280;41384;51.418;7.286;2023-05-28T07:56:29;100312.50;;;15.50;75.30
55540;BME280;41384;51.418;7.286;2023-05-28T07:58:55;100314.63;;;15.60;75.08
55540;BME280;41384;51.418;7.286;2023-05-28T08:01:20;100310.59;;;15.69;74.51
55540;BME280;41384;51.418;7.286;2023-05-28T08:03:46;100313.59;;;15.73;73.91
55540;BME280;41384;51.418;7.286;2023-05-28T08:06:16;100308.75;;;15.82;74.20
55540;BME280;41384;51.418;7.286;2023-05-28T08:08:41;100316.03;;;15.86;74.02
55540;BME280;41384;51.418;7.286;2023-05-28T08:11:07;100311.47;;;15.94;74.86
55540;BME280;41384;51.418;7.286;2023-05-28T08:13:34;100320.16;;;16.01;75.31
55540;BME280;41384;51.418;7.286;2023-05-28T08:15:59;100314.25;;;16.11;72.42
55540;BME280;41384;51.418;7.286;2023-05-28T08:18:24;100319.34;;;16.24;71.42
55540;BME280;41384;51.418;7.286;2023-05-28T08:20:50;100317.97;;;16.33;69.40
55540;BME280;41384;51.418;7.286;2023-05-28T08:23:16;100318.31;;;16.37;69.09
55540;BME280;41384;51.418;7.286;2023-05-28T08:25:41;100304.66;;;16.45;68.74
55540;BME280;41384;51.418;7.286;2023-05-28T08:28:06;100300.03;;;16.41;66.65
55540;BME280;41384;51.418;7.286;2023-05-28T08:30:34;100302.00;;;16.45;67.55
55540;BME280;41384;51.418;7.286;2023-05-28T08:33:00;100306.59;;;16.62;66.90
55540;BME280;41384;51.418;7.286;2023-05-28T08:35:25;100300.38;;;16.56;68.52
55540;BME280;41384;51.418;7.286;2023-05-28T08:37:51;100301.03;;;16.63;67.15
55540;BME280;41384;51.418;7.286;2023-05-28T08:40:16;100304.13;;;16.72;66.25
55540;BME280;41384;51.418;7.286;2023-05-28T08:42:42;100295.81;;;16.81;66.34
55540;BME280;41384;51.418;7.286;2023-05-28T08:45:08;100291.84;;;16.83;66.12
55540;BME280;41384;51.418;7.286;2023-05-28T08:47:36;100294.72;;;16.93;65.29
55540;BME280;41384;51.418;7.286;2023-05-28T08:50:04;100291.56;;;17.09;63.69
55540;BME280;41384;51.418;7.286;2023-05-28T08:52:33;100289.13;;;17.07;62.77
55540;BME280;41384;51.418;7.286;2023-05-28T08:54:59;100290.94;;;17.18;62.06
55540;BME280;41384;51.418;7.286;2023-05-28T08:57:25;100290.34;;;17.16;62.90
55540;BME280;41384;51.418;7.286;2023-05-28T08:59:53;100283.75;;;17.19;64.40
55540;BME280;41384;51.418;7.286;2023-05-28T09:02:23;100271.91;;;17.27;63.73
55540;BME280;41384;51.418;7.286;2023-05-28T09:04:48;100280.00;;;17.32;63.48
55540;BME280;41384;51.418;7.286;2023-05-28T09:07:15;100274.84;;;17.42;62.74
55540;BME280;41384;51.418;7.286;2023-05-28T09:09:40;100273.88;;;17.48;63.20
55540;BME280;41384;51.418;7.286;2023-05-28T09:12:10;100267.56;;;17.55;61.91
55540;BME280;41384;51.418;7.286;2023-05-28T09:14:41;100267.31;;;17.73;60.30
55540;BME280;41384;51.418;7.286;2023-05-28T09:17:07;100269.59;;;17.82;60.21
55540;BME280;41384;51.418;7.286;2023-05-28T09:19:36;100258.34;;;17.97;58.58
55540;BME280;41384;51.418;7.286;2023-05-28T09:22:02;100262.16;;;18.01;56.94
55540;BME280;41384;51.418;7.286;2023-05-28T09:24:29;100260.78;;;18.15;56.30
55540;BME280;41384;51.418;7.286;2023-05-28T09:26:56;100263.44;;;18.15;57.26
55540;BME280;41384;51.418;7.286;2023-05-28T09:29:25;100266.38;;;18.14;57.86
55540;BME280;41384;51.418;7.286;2023-05-28T09:31:59;100259.06;;;18.26;56.02
55540;BME280;41384;51.418;7.286;2023-05-28T09:34:28;100260.69;;;18.27;56.87
55540;BME280;41384;51.418;7.286;2023-05-28T09:37:01;100255.56;;;18.26;57.69
55540;BME280;41384;51.418;7.286;2023-05-28T09:39:26;100256.38;;;18.26;58.13
55540;BME280;41384;51.418;7.286;2023-05-28T09:41:59;100261.38;;;18.40;58.32
55540;BME280;41384;51.418;7.286;2023-05-28T09:44:39;100251.53;;;18.67;55.16
55540;BME280;41384;51.418;7.286;2023-05-28T09:47:14;100255.59;;;18.70;56.60
55540;BME280;41384;51.418;7.286;2023-05-28T09:49:42;100252.53;;;18.61;56.90
55540;BME280;41384;51.418;7.286;2023-05-28T09:52:20;100247.25;;;18.66;56.06
55540;BME280;41384;51.418;7.286;2023-05-28T09:54:53;100242.84;;;18.77;55.90
55540;BME280;41384;51.418;7.286;2023-05-28T09:57:23;100246.13;;;18.85;54.88
55540;BME280;41384;51.418;7.286;2023-05-28T09:59:52;100249.50;;;18.97;53.44
55540;BME280;41384;51.418;7.286;2023-05-28T10:02:28;100244.94;;;19.25;50.36
55540;BME280;41384;51.418;7.286;2023-05-28T10:04:59;100250.75;;;19.17;51.76
55540;BME280;41384;51.418;7.286;2023-05-28T10:07:28;100246.69;;;19.09;52.86
55540;BME280;41384;51.418;7.286;2023-05-28T10:09:54;100255.78;;;19.08;53.44
55540;BME280;41384;51.418;7.286;2023-05-28T10:12:24;100259.28;;;19.14;50.79
55540;BME280;41384;51.418;7.286;2023-05-28T10:14:50;100248.44;;;19.25;51.12
55540;BME280;41384;51.418;7.286;2023-05-28T10:17:17;100250.75;;;19.44;50.20
55540;BME280;41384;51.418;7.286;2023-05-28T10:19:44;100263.63;;;19.47;49.41
55540;BME280;41384;51.418;7.286;2023-05-28T10:22:10;100251.13;;;19.58;49.78
55540;BME280;41384;51.418;7.286;2023-05-28T10:24:36;100259.41;;;19.57;50.56
55540;BME280;41384;51.418;7.286;2023-05-28T10:27:04;100255.69;;;19.63;50.22
55540;BME280;41384;51.418;7.286;2023-05-28T10:29:42;100253.56;;;19.65;49.66
55540;BME280;41384;51.418;7.286;2023-05-28T10:32:07;100256.50;;;19.58;50.30
55540;BME280;41384;51.418;7.286;2023-05-28T10:34:35;100248.47;;;19.58;51.00
55540;BME280;41384;51.418;7.286;2023-05-28T10:37:08;100253.41;;;19.77;50.41
55540;BME280;41384;51.418;7.286;2023-05-28T10:39:38;100241.31;;;19.74;51.34
55540;BME280;41384;51.418;7.286;2023-05-28T10:42:05;100250.47;;;19.78;50.99
55540;BME280;41384;51.418;7.286;2023-05-28T10:47:37;100247.75;;;19.73;52.94
55540;BME280;41384;51.418;7.286;2023-05-28T10:52:34;100243.53;;;19.82;51.93
55540;BME280;41384;51.418;7.286;2023-05-28T10:55:02;100236.16;;;19.95;51.03
55540;BME280;41384;51.418;7.286;2023-05-28T11:00:08;100243.69;;;19.98;51.03
55540;BME280;41384;51.418;7.286;2023-05-28T11:02:39;100238.03;;;20.00;51.63
55540;BME280;41384;51.418;7.286;2023-05-28T11:05:06;100240.50;;;20.06;51.96
55540;BME280;41384;51.418;7.286;2023-05-28T11:07:37;100232.69;;;20.00;52.35
55540;BME280;41384;51.418;7.286;2023-05-28T11:10:05;100225.78;;;20.14;52.37
55540;BME280;41384;51.418;7.286;2023-05-28T11:12:32;100223.97;;;20.20;50.61
55540;BME280;41384;51.418;7.286;2023-05-28T11:14:57;100230.63;;;20.17;50.79
55540;BME280;41384;51.418;7.286;2023-05-28T11:17:23;100236.53;;;20.14;51.57
55540;BME280;41384;51.418;7.286;2023-05-28T11:19:49;100238.19;;;20.31;49.59
55540;BME280;41384;51.418;7.286;2023-05-28T11:22:17;100235.19;;;20.17;51.21
55540;BME280;41384;51.418;7.286;2023-05-28T11:24:59;100239.50;;;20.18;49.60
55540;BME280;41384;51.418;7.286;2023-05-28T11:27:30;100233.91;;;20.30;49.35
55540;BME280;41384;51.418;7.286;2023-05-28T11:29:58;100231.31;;;20.40;50.32
55540;BME280;41384;51.418;7.286;2023-05-28T11:32:25;100239.66;;;20.54;48.85
55540;BME280;41384;51.418;7.286;2023-05-28T11:34:52;100228.97;;;20.75;48.86
55540;BME280;41384;51.418;7.286;2023-05-28T11:37:23;100226.94;;;20.92;48.94
55540;BME280;41384;51.418;7.286;2023-05-28T11:39:53;100217.31;;;21.17;47.69
55540;BME280;41384;51.418;7.286;2023-05-28T11:42:19;100221.06;;;21.32;46.10
55540;BME280;41384;51.418;7.286;2023-05-28T11:44:46;100220.53;;;21.29;46.64
55540;BME280;41384;51.418;7.286;2023-05-28T11:47:11;100232.88;;;21.31;45.36
55540;BME280;41384;51.418;7.286;2023-05-28T11:49:37;100226.72;;;21.25;45.76
55540;BME280;41384;51.418;7.286;2023-05-28T11:52:02;100221.59;;;21.28;45.60
55540;BME280;41384;51.418;7.286;2023-05-28T11:54:28;100229.41;;;21.35;45.20
55540;BME280;41384;51.418;7.286;2023-05-28T11:56:53;100225.88;;;21.55;44.81
55540;BME280;41384;51.418;7.286;2023-05-28T11:59:21;100222.16;;;21.67;43.01
55540;BME280;41384;51.418;7.286;2023-05-28T12:01:46;100230.19;;;21.56;43.04
55540;BME280;41384;51.418;7.286;2023-05-28T12:04:11;100229.38;;;21.77;42.57
55540;BME280;41384;51.418;7.286;2023-05-28T12:06:50;100231.28;;;21.76;44.13
55540;BME280;41384;51.418;7.286;2023-05-28T12:09:16;100228.03;;;21.90;43.95
55540;BME280;41384;51.418;7.286;2023-05-28T12:11:41;100223.22;;;21.86;44.62
55540;BME280;41384;51.418;7.286;2023-05-28T12:14:11;100221.53;;;22.06;43.82
55540;BME280;41384;51.418;7.286;2023-05-28T12:16:46;100218.56;;;22.08;42.15
55540;BME280;41384;51.418;7.286;2023-05-28T12:19:14;100228.03;;;21.90;42.80
55540;BME280;41384;51.418;7.286;2023-05-28T12:21:41;100224.84;;;21.77;44.40
55540;BME280;41384;51.418;7.286;2023-05-28T12:24:14;100216.47;;;21.84;42.35
55540;BME280;41384;51.418;7.286;2023-05-28T12:26:41;100216.75;;;21.93;43.48
55540;BME280;41384;51.418;7.286;2023-05-28T12:29:06;100217.78;;;22.02;42.87
55540;BME280;41384;51.418;7.286;2023-05-28T12:31:31;100213.72;;;22.15;42.31
55540;BME280;41384;51.418;7.286;2023-05-28T12:33:56;100218.28;;;22.14;43.12
55540;BME280;41384;51.418;7.286;2023-05-28T12:36:22;100218.22;;;22.30;41.39
55540;BME280;41384;51.418;7.286;2023-05-28T12:38:47;100215.34;;;22.16;40.58
55540;BME280;41384;51.418;7.286;2023-05-28T12:41:12;100214.22;;;22.27;41.05
55540;BME280;41384;51.418;7.286;2023-05-28T12:43:38;100207.78;;;22.23;40.95
55540;BME280;41384;51.418;7.286;2023-05-28T12:46:03;100217.16;;;22.26;41.62
55540;BME280;41384;51.418;7.286;2023-05-28T12:48:28;100206.97;;;22.18;41.60
55540;BME280;41384;51.418;7.286;2023-05-28T12:50:53;100205.66;;;22.05;43.54
55540;BME280;41384;51.418;7.286;2023-05-28T12:53:19;100202.19;;;22.04;42.31